Terminal Aerodrome Forecast
Issued by NWS

Home | Current Version | Previous Version | Graphics & Text | Print | Product List | Glossary On
Versions: 1 2 3 4 5 6 7 8 9 10 11 12 13 14 15 16 17 18 19 20 21
311
FTUS42 KMHX 201511 AAA
TAFPGV
TAF AMD
KPGV 201511Z 2015/2112 VRB03KT 6SM -SHRA SCT015 OVC070
     FM201800 28005KT 3SM +SHRA VCTS OVC030CB
     FM210100 VRB04KT 6SM SHRA OVC020
     FM210200 VRB04KT 6SM SHRA OVC015
      AMD LTD TO CLD VIS AND WIND=

USA.gov is the U.S. government's official web portal to all federal, state and local government web resources and services.